Time;durP1;ratioP1;P1;durP2;ratioP2;P2;SDS_P1;SDS_P2;PMS_P1;PMS_P2;Temp;Humidity;BMP_temperature;BMP_pressure;BME280_temperature;BME280_humidity;BME280_pressure;Samples;Min_cycle;Max_cycle;Signal;HPM_P1;HPM_P2
2022/04/08 00:01:35;;;;;;;12.60;6.60;;;;;;;7.42;100.00;98501.30;1697192;82;21080;-67
2022/04/08 00:04:02;;;;;;;13.10;6.53;;;;;;;7.38;100.00;98487.39;1709278;82;21034;-68
2022/04/08 00:06:30;;;;;;;12.17;6.90;;;;;;;7.36;100.00;98490.75;1686588;82;21606;-68
2022/04/08 00:08:57;;;;;;;17.30;7.33;;;;;;;7.33;100.00;98480.88;1685801;85;21629;-68
2022/04/08 00:11:25;;;;;;;13.50;7.33;;;;;;;7.35;100.00;98476.18;1658244;85;21571;-68
2022/04/08 00:13:53;;;;;;;15.47;7.60;;;;;;;7.35;100.00;98478.34;1682641;85;21085;-68
2022/04/08 00:16:21;;;;;;;14.83;7.60;;;;;;;7.33;100.00;98473.67;1659095;83;21154;-69
2022/04/08 00:18:48;;;;;;;17.47;8.17;;;;;;;7.33;100.00;98472.33;1643980;84;21097;-68
2022/04/08 00:21:16;;;;;;;17.40;7.73;;;;;;;7.32;100.00;98467.96;1679146;82;21053;-69
2022/04/08 00:23:43;;;;;;;13.47;7.60;;;;;;;7.31;100.00;98465.45;1669086;83;21061;-67
2022/04/08 00:26:10;;;;;;;14.23;7.93;;;;;;;7.31;100.00;98462.28;1687922;82;21135;-69
2022/04/08 00:28:37;;;;;;;15.13;8.03;;;;;;;7.30;100.00;98459.77;1702159;82;21046;-68
2022/04/08 00:31:05;;;;;;;16.00;7.97;;;;;;;7.29;100.00;98458.09;1704583;79;21502;-68
2022/04/08 00:33:34;;;;;;;15.27;7.83;;;;;;;7.26;100.00;98457.12;1788703;79;21050;-69
2022/04/08 00:36:01;;;;;;;15.20;7.93;;;;;;;7.22;100.00;98457.52;1794923;79;20990;-69
2022/04/08 00:38:28;;;;;;;15.03;8.17;;;;;;;7.22;100.00;98452.14;1791419;79;21022;-67
2022/04/08 00:40:56;;;;;;;14.67;8.77;;;;;;;7.20;100.00;98448.78;1792590;79;21528;-69
2022/04/08 00:43:36;;;;;;;15.37;8.23;;;;;;;7.20;100.00;98443.92;1770931;79;21594;-67
2022/04/08 00:46:05;;;;;;;16.80;8.40;;;;;;;7.21;100.00;98434.85;1703543;83;21050;-68
2022/04/08 00:48:32;;;;;;;14.83;8.63;;;;;;;7.25;100.00;98433.97;1730610;81;21007;-68
2022/04/08 00:51:00;;;;;;;18.70;8.53;;;;;;;7.25;100.00;98432.62;1730014;82;21044;-68
2022/04/08 00:53:27;;;;;;;16.67;8.90;;;;;;;7.23;100.00;98420.70;1687604;81;21046;-68
2022/04/08 00:55:55;;;;;;;18.67;9.17;;;;;;;7.21;100.00;98412.83;1693105;83;21561;-69
2022/04/08 00:58:23;;;;;;;16.17;9.33;;;;;;;7.22;100.00;98416.34;1725924;82;21032;-69
2022/04/08 01:00:50;;;;;;;17.47;8.80;;;;;;;7.19;100.00;98405.47;1659759;85;21066;-68
2022/04/08 01:03:18;;;;;;;14.67;8.80;;;;;;;7.18;100.00;98400.28;1703102;82;21089;-68
2022/04/08 01:05:47;;;;;;;15.77;8.43;;;;;;;7.17;100.00;98399.94;1664838;85;21633;-68
2022/04/08 01:08:17;;;;;;;18.30;8.80;;;;;;;7.13;100.00;98386.05;1660785;86;21099;-67
2022/04/08 01:10:43;;;;;;;16.77;9.23;;;;;;;7.10;100.00;98378.39;1661090;84;21057;-68
2022/04/08 01:13:11;;;;;;;16.07;9.40;;;;;;;7.09;100.00;98373.20;1680785;84;21070;-68
2022/04/08 01:15:40;;;;;;;17.47;8.43;;;;;;;7.07;100.00;98353.22;1681065;83;21087;-69
2022/04/08 01:18:08;;;;;;;16.90;9.43;;;;;;;7.05;100.00;98349.90;1647015;85;22279;-68
2022/04/08 01:20:37;;;;;;;18.07;9.27;;;;;;;7.03;100.00;98343.37;1690577;82;21079;-68
2022/04/08 01:23:05;;;;;;;18.97;10.23;;;;;;;7.00;100.00;98342.39;1698143;82;21172;-68
2022/04/08 01:25:32;;;;;;;17.13;9.57;;;;;;;6.99;100.00;98336.72;1709366;83;21033;-69
2022/04/08 01:28:01;;;;;;;18.50;8.93;;;;;;;6.98;100.00;98328.84;1702894;83;21026;-69
2022/04/08 01:30:28;;;;;;;17.00;9.13;;;;;;;6.94;100.00;98317.64;1725162;82;21038;-67
2022/04/08 01:32:56;;;;;;;16.27;8.63;;;;;;;6.93;100.00;98308.42;1724047;82;21037;-67
2022/04/08 01:35:24;;;;;;;21.00;9.13;;;;;;;6.91;100.00;98310.47;1701261;82;21058;-67
2022/04/08 01:37:51;;;;;;;15.07;8.67;;;;;;;6.90;100.00;98305.58;1728675;82;21039;-68
2022/04/08 01:40:20;;;;;;;16.87;9.43;;;;;;;6.89;100.00;98303.08;1703915;82;21568;-67
2022/04/08 01:42:48;;;;;;;19.77;9.83;;;;;;;6.86;100.00;98295.42;1743302;80;21559;-68
2022/04/08 01:45:15;;;;;;;16.30;8.63;;;;;;;6.82;100.00;98294.45;1754753;80;21038;-67
2022/04/08 01:47:46;;;;;;;16.90;9.13;;;;;;;6.80;100.00;98291.65;1779856;80;21038;-67
2022/04/08 01:50:18;;;;;;;17.90;9.13;;;;;;;6.75;100.00;98282.80;1751549;79;21524;-69
2022/04/08 01:52:42;;;;;;;16.90;9.17;;;;;;;6.72;100.00;98279.14;1776096;80;20986;-68
2022/04/08 01:55:09;;;;;;;16.17;9.07;;;;;;;6.70;100.00;98266.42;1745405;80;21070;-68
2022/04/08 01:57:36;;;;;;;17.03;9.40;;;;;;;6.71;100.00;98263.22;1748917;81;21053;-68
2022/04/08 02:00:05;;;;;;;16.60;9.40;;;;;;;6.68;100.00;98252.35;1730169;81;21093;-66
2022/04/08 02:02:34;;;;;;;17.30;9.40;;;;;;;6.65;100.00;98246.02;1751930;81;21077;-68
2022/04/08 02:05:02;;;;;;;18.83;9.90;;;;;;;6.62;100.00;98240.52;1756482;81;21096;-68
2022/04/08 02:07:30;;;;;;;17.30;9.77;;;;;;;6.61;100.00;98242.05;1756051;81;21030;-67
2022/04/08 02:09:57;;;;;;;18.03;9.90;;;;;;;6.58;100.00;98236.53;1725209;82;21093;-67
2022/04/08 02:12:26;;;;;;;20.03;10.20;;;;;;;6.56;100.00;98240.44;1753410;81;21057;-67
2022/04/08 02:14:54;;;;;;;19.03;9.83;;;;;;;6.54;100.00;98243.31;1752266;80;21066;-68
2022/04/08 02:17:25;;;;;;;17.17;9.73;;;;;;;6.53;100.00;98234.09;1756626;81;20998;-68
2022/04/08 02:19:53;;;;;;;18.50;10.23;;;;;;;6.50;100.00;98225.92;1757806;81;21819;-69
2022/04/08 02:22:24;;;;;;;20.97;10.17;;;;;;;6.49;100.00;98224.77;1751446;81;21029;-69
2022/04/08 02:24:51;;;;;;;17.73;9.40;;;;;;;6.45;100.00;98222.45;1727876;81;21077;-68
2022/04/08 02:27:19;;;;;;;18.03;9.13;;;;;;;6.43;100.00;98219.65;1723683;81;21018;-70
2022/04/08 02:29:46;;;;;;;19.83;10.03;;;;;;;6.41;100.00;98216.30;1749781;81;21025;-67
2022/04/08 02:32:14;;;;;;;16.77;9.40;;;;;;;6.40;100.00;98211.97;1755730;81;21541;-67
2022/04/08 02:34:42;;;;;;;18.17;10.20;;;;;;;6.38;100.00;98204.61;1756686;81;21518;-68
2022/04/08 02:37:09;;;;;;;19.67;10.37;;;;;;;6.36;100.00;98204.80;1757441;81;21724;-68
2022/04/08 02:39:37;;;;;;;20.47;10.63;;;;;;;6.35;100.00;98194.25;1752321;81;21073;-67
2022/04/08 02:42:06;;;;;;;19.53;9.43;;;;;;;6.32;100.00;98191.45;1756717;81;21074;-67
2022/04/08 02:44:35;;;;;;;17.20;10.30;;;;;;;6.31;100.00;98181.72;1752136;81;21498;-68
2022/04/08 02:47:03;;;;;;;19.47;10.10;;;;;;;6.30;100.00;98185.92;1755948;81;21501;-68
2022/04/08 02:49:30;;;;;;;18.23;9.80;;;;;;;6.29;100.00;98178.91;1700609;81;21034;-69
2022/04/08 02:51:57;;;;;;;17.43;9.60;;;;;;;6.28;100.00;98182.08;1757074;81;21025;-69
2022/04/08 02:54:25;;;;;;;19.53;10.13;;;;;;;6.26;100.00;98179.58;1772508;80;20990;-68
2022/04/08 02:56:53;;;;;;;21.17;10.70;;;;;;;6.25;100.00;98170.38;1781075;80;21006;-68
2022/04/08 02:59:21;;;;;;;19.57;9.77;;;;;;;6.25;100.00;98163.66;1783292;80;21126;-69
2022/04/08 03:01:48;;;;;;;18.93;9.57;;;;;;;6.25;100.00;98163.66;1781826;80;21047;-68
2022/04/08 03:04:15;;;;;;;18.73;10.40;;;;;;;6.25;100.00;98161.84;1782773;80;21108;-67
2022/04/08 03:06:43;;;;;;;19.60;10.07;;;;;;;6.25;100.00;98162.33;1790573;79;21003;-67
2022/04/08 03:09:10;;;;;;;19.77;10.13;;;;;;;6.24;100.00;98156.13;1736305;80;21042;-68
2022/04/08 03:11:37;;;;;;;19.77;10.20;;;;;;;6.25;100.00;98152.93;1776537;80;21101;-69
2022/04/08 03:14:05;;;;;;;21.43;9.93;;;;;;;6.27;100.00;98157.63;1780766;80;21062;-68
2022/04/08 03:16:33;;;;;;;18.57;9.73;;;;;;;6.30;100.00;98148.34;1766466;81;21055;-69
2022/04/08 03:19:02;;;;;;;17.90;9.90;;;;;;;6.32;100.00;98150.33;1747320;81;21610;-67
2022/04/08 03:21:30;;;;;;;18.23;10.00;;;;;;;6.32;100.00;98145.81;1736641;81;21579;-68
2022/04/08 03:23:58;;;;;;;21.63;10.53;;;;;;;6.34;100.00;98141.56;1749985;81;21034;-68
2022/04/08 03:26:25;;;;;;;18.00;10.17;;;;;;;6.35;100.00;98133.84;1762400;80;21038;-69
2022/04/08 03:28:53;;;;;;;18.23;9.70;;;;;;;6.36;100.00;98133.66;1759751;81;21009;-67
2022/04/08 03:31:20;;;;;;;18.40;9.43;;;;;;;6.40;100.00;98129.56;1752567;81;21029;-69
2022/04/08 03:33:49;;;;;;;20.37;9.57;;;;;;;6.41;100.00;98121.84;1790158;79;21023;-67
2022/04/08 03:36:16;;;;;;;19.53;10.07;;;;;;;6.45;100.00;98131.17;1759729;80;21065;-68
2022/04/08 03:38:43;;;;;;;16.00;9.37;;;;;;;6.48;100.00;98134.48;1754584;81;21021;-68
2022/04/08 03:41:10;;;;;;;20.63;10.40;;;;;;;6.50;100.00;98130.60;1709679;81;21081;-67
2022/04/08 03:43:37;;;;;;;19.57;9.87;;;;;;;6.52;100.00;98130.42;1731333;81;21030;-68
2022/04/08 03:46:05;;;;;;;19.90;9.60;;;;;;;6.54;100.00;98129.19;1782864;79;21547;-68
2022/04/08 03:48:32;;;;;;;17.53;9.50;;;;;;;6.56;100.00;98131.16;1762973;81;21051;-68
2022/04/08 03:50:59;;;;;;;17.90;8.93;;;;;;;6.59;100.00;98125.42;1785658;79;21030;-67
2022/04/08 03:53:27;;;;;;;16.13;9.20;;;;;;;6.60;100.00;98125.72;1754794;81;21590;-67
2022/04/08 03:55:55;;;;;;;19.10;9.60;;;;;;;6.62;100.00;98124.19;1766728;79;20999;-68
2022/04/08 03:58:24;;;;;;;19.30;10.13;;;;;;;6.62;100.00;98124.19;1784451;79;21041;-68
2022/04/08 04:00:51;;;;;;;18.40;9.57;;;;;;;6.63;100.00;98122.66;1794256;79;21034;-67
2022/04/08 04:03:19;;;;;;;15.83;9.17;;;;;;;6.67;100.00;98120.94;1766809;79;21018;-67
2022/04/08 04:05:46;;;;;;;16.33;9.70;;;;;;;6.69;100.00;98123.73;1751685;81;21041;-68
2022/04/08 04:08:18;;;;;;;17.30;9.00;;;;;;;6.71;100.00;98118.17;1752237;79;21061;-66
2022/04/08 04:10:45;;;;;;;19.23;10.10;;;;;;;6.72;100.00;98114.48;1748222;79;21832;-68
2022/04/08 04:13:12;;;;;;;17.83;9.50;;;;;;;6.73;100.00;98118.80;1749014;81;21069;-68
2022/04/08 04:15:39;;;;;;;17.70;9.70;;;;;;;6.74;100.00;98119.14;1751617;81;21539;-69
2022/04/08 04:18:08;;;;;;;21.17;9.73;;;;;;;6.75;100.00;98110.89;1736162;81;21085;-68
2022/04/08 04:20:37;;;;;;;22.47;9.77;;;;;;;6.77;100.00;98112.86;1730008;81;21058;-67
2022/04/08 04:23:04;;;;;;;17.67;9.23;;;;;;;6.79;100.00;98113.50;1732032;81;21038;-67
2022/04/08 04:25:32;;;;;;;18.10;9.57;;;;;;;6.82;100.00;98114.98;1751312;81;21018;-69
2022/04/08 04:28:00;;;;;;;16.70;9.47;;;;;;;6.83;100.00;98116.13;1749428;81;21050;-68
2022/04/08 04:30:27;;;;;;;17.80;9.07;;;;;;;6.87;100.00;98121.95;1751060;81;21030;-69
2022/04/08 04:32:56;;;;;;;17.80;9.20;;;;;;;6.90;100.00;98118.03;1745279;81;21025;-68
2022/04/08 04:35:23;;;;;;;19.50;9.30;;;;;;;6.96;100.00;98119.95;1755058;81;21038;-69
2022/04/08 04:37:50;;;;;;;16.27;9.17;;;;;;;7.00;100.00;98125.25;1746157;81;21493;-68
2022/04/08 04:40:17;;;;;;;17.13;9.40;;;;;;;7.04;100.00;98119.27;1728491;81;21061;-68
2022/04/08 04:42:46;;;;;;;17.40;9.63;;;;;;;7.10;100.00;98111.45;1746124;81;21014;-68
2022/04/08 04:45:14;;;;;;;16.87;9.47;;;;;;;7.18;100.00;98114.83;1726626;81;21021;-68
2022/04/08 04:47:41;;;;;;;17.00;8.83;;;;;;;7.30;100.00;98107.58;1730845;81;21018;-68
2022/04/08 04:50:09;;;;;;;20.67;9.30;;;;;;;7.41;100.00;98099.77;1747608;81;21061;-68
2022/04/08 04:52:37;;;;;;;19.40;9.50;;;;;;;7.53;100.00;98109.46;1726790;81;21022;-68
2022/04/08 04:55:06;;;;;;;16.20;8.90;;;;;;;7.66;100.00;98094.42;1753109;81;21046;-68
2022/04/08 04:57:34;;;;;;;16.37;8.97;;;;;;;7.78;100.00;98099.55;1779656;79;20994;-68
2022/04/08 05:00:03;;;;;;;14.97;8.83;;;;;;;7.91;100.00;98102.27;1786093;79;21093;-68
2022/04/08 05:02:31;;;;;;;17.80;9.43;;;;;;;8.04;100.00;98100.16;1764671;79;21116;-68
2022/04/08 05:04:59;;;;;;;17.77;9.33;;;;;;;8.17;100.00;98099.37;1779234;79;21077;-67
2022/04/08 05:07:26;;;;;;;18.73;9.07;;;;;;;8.31;100.00;98110.48;1758663;81;21045;-68
2022/04/08 05:09:53;;;;;;;15.07;8.70;;;;;;;8.46;100.00;98120.27;1712721;81;21035;-68
2022/04/08 05:12:22;;;;;;;26.33;13.60;;;;;;;8.57;100.00;98120.19;1749284;81;21597;-67
2022/04/08 05:14:50;;;;;;;18.47;8.93;;;;;;;8.70;100.00;98118.34;1729893;81;21070;-68
2022/04/08 05:17:16;;;;;;;20.83;9.30;;;;;;;8.85;100.00;98113.27;1758220;80;21017;-68
2022/04/08 05:19:43;;;;;;;20.33;9.50;;;;;;;9.00;100.00;98121.16;1732124;81;20971;-68
2022/04/08 05:22:11;;;;;;;14.80;8.77;;;;;;;9.15;100.00;98112.31;1753610;81;21161;-67
2022/04/08 05:24:38;;;;;;;23.97;10.40;;;;;;;9.28;100.00;98121.75;1765297;81;21077;-67
2022/04/08 05:27:06;;;;;;;19.92;9.08;;;;;;;9.39;100.00;98124.33;1722033;82;21510;-71
2022/04/08 05:29:34;;;;;;;17.65;9.40;;;;;;;9.57;100.00;98122.84;1758411;81;21010;-69
2022/04/08 05:32:01;;;;;;;19.93;9.13;;;;;;;9.79;100.00;98126.08;1762612;80;20990;-68
2022/04/08 05:34:29;;;;;;;19.48;8.80;;;;;;;10.03;100.00;98130.77;1761352;80;21070;-68
2022/04/08 05:36:56;;;;;;;17.55;8.60;;;;;;;10.24;100.00;98128.29;1762899;80;21488;-68
2022/04/08 05:39:23;;;;;;;18.37;9.03;;;;;;;10.42;100.00;98127.59;1746503;80;21581;-69
2022/04/08 05:41:52;;;;;;;17.55;9.00;;;;;;;10.58;100.00;98120.84;1740749;80;21076;-68
2022/04/08 05:44:19;;;;;;;18.27;8.48;;;;;;;10.72;100.00;98125.64;1740216;80;20959;-67
2022/04/08 05:46:46;;;;;;;23.83;11.08;;;;;;;10.89;100.00;98132.70;1756110;80;21038;-67
2022/04/08 05:49:13;;;;;;;23.42;11.45;;;;;;;11.08;100.00;98138.98;1741447;81;20979;-65
2022/04/08 05:51:41;;;;;;;17.60;9.30;;;;;;;11.25;100.00;98143.33;1765315;79;21011;-67
2022/04/08 05:54:08;;;;;;;26.95;10.82;;;;;;;11.39;100.00;98148.09;1744834;80;21038;-67
2022/04/08 05:56:36;;;;;;;27.90;9.70;;;;;;;11.56;100.00;98151.03;1743444;80;21042;-69
2022/04/08 05:59:03;;;;;;;22.37;9.33;;;;;;;11.75;100.00;98151.36;1743087;80;20997;-67
2022/04/08 06:01:30;;;;;;;25.17;9.63;;;;;;;11.93;100.00;98151.09;1760512;80;21581;-68
2022/04/08 06:03:57;;;;;;;26.35;11.57;;;;;;;12.11;100.00;98143.48;1778103;80;21147;-69
2022/04/08 06:06:25;;;;;;;19.75;9.28;;;;;;;12.30;100.00;98158.66;1742575;80;21101;-67
2022/04/08 06:08:52;;;;;;;21.02;9.15;;;;;;;12.45;100.00;98160.17;1767518;80;21109;-67
2022/04/08 06:11:19;;;;;;;14.20;8.30;;;;;;;12.65;100.00;98169.38;1750403;80;21049;-69
2022/04/08 06:13:46;;;;;;;25.02;10.50;;;;;;;12.70;100.00;98178.47;1754515;81;21073;-67
2022/04/08 06:16:15;;;;;;;23.30;13.22;;;;;;;12.69;100.00;98187.64;1756792;80;21088;-64
2022/04/08 06:18:42;;;;;;;24.20;9.30;;;;;;;12.68;100.00;98189.25;1747753;80;21066;-66
2022/04/08 06:21:10;;;;;;;18.45;8.60;;;;;;;12.63;100.00;98198.06;1746774;81;21038;-70
2022/04/08 06:23:39;;;;;;;24.47;9.25;;;;;;;12.59;100.00;98198.74;1718770;82;21027;-67
2022/04/08 06:26:06;;;;;;;23.62;10.10;;;;;;;12.55;100.00;98198.38;1769190;80;21082;-68
2022/04/08 06:28:34;;;;;;;29.87;16.45;;;;;;;12.51;100.00;98189.88;1758937;80;21037;-69
2022/04/08 06:31:01;;;;;;;18.80;9.53;;;;;;;12.56;100.00;98191.91;1772422;80;21034;-68
2022/04/08 06:33:29;;;;;;;16.50;8.40;;;;;;;12.68;100.00;98212.30;1762608;80;21081;-68
2022/04/08 06:35:56;;;;;;;22.45;9.68;;;;;;;12.80;100.00;98210.47;1718305;82;21119;-67
2022/04/08 06:38:25;;;;;;;20.37;8.45;;;;;;;13.05;100.00;98217.59;1720328;82;21030;-68
2022/04/08 06:40:52;;;;;;;22.60;10.55;;;;;;;13.39;100.00;98213.89;1722285;81;21041;-67
2022/04/08 06:43:19;;;;;;;24.80;10.03;;;;;;;13.75;100.00;98217.45;1746390;82;21495;-68
2022/04/08 06:45:47;;;;;;;18.73;8.98;;;;;;;14.04;100.00;98221.08;1760637;80;21009;-67
2022/04/08 06:48:14;;;;;;;26.05;8.60;;;;;;;14.24;100.00;98220.72;1768513;80;21523;-67
2022/04/08 06:50:42;;;;;;;19.10;8.25;;;;;;;14.37;100.00;98225.06;1754184;80;21515;-66
2022/04/08 06:53:09;;;;;;;13.75;6.90;;;;;;;14.38;100.00;98236.24;1768515;80;21490;-65
2022/04/08 06:55:37;;;;;;;20.03;8.33;;;;;;;14.47;100.00;98243.50;1750294;80;21487;-67
2022/04/08 06:58:05;;;;;;;18.07;7.65;;;;;;;14.55;100.00;98242.55;1748867;80;21077;-68
2022/04/08 07:00:32;;;;;;;16.80;7.53;;;;;;;14.80;100.00;98257.26;1773670;80;21113;-66
2022/04/08 07:02:59;;;;;;;18.80;7.90;;;;;;;15.16;100.00;98259.29;1703340;81;21557;-67
2022/04/08 07:05:29;;;;;;;18.98;7.90;;;;;;;15.30;100.00;98269.34;1753033;80;22186;-68
2022/04/08 07:07:56;;;;;;;24.27;8.13;;;;;;;15.23;100.00;98272.76;1720616;80;21645;-67
2022/04/08 07:10:23;;;;;;;23.70;12.15;;;;;;;15.17;100.00;98273.72;1699598;81;21621;-68
2022/04/08 07:12:50;;;;;;;23.73;9.65;;;;;;;15.22;100.00;98275.72;1740271;81;21043;-68
2022/04/08 07:15:19;;;;;;;21.20;8.23;;;;;;;15.41;100.00;98273.07;1732420;81;21567;-68
2022/04/08 07:17:47;;;;;;;22.52;9.35;;;;;;;15.48;100.00;98277.01;1776984;80;21044;-67
2022/04/08 07:20:16;;;;;;;19.37;9.45;;;;;;;15.52;100.00;98282.23;1764723;80;21057;-67
2022/04/08 07:22:44;;;;;;;23.00;8.18;;;;;;;15.54;100.00;98275.45;1713722;81;21661;-68
2022/04/08 07:25:11;;;;;;;29.67;10.82;;;;;;;15.56;100.00;98273.34;1744026;82;21503;-67
2022/04/08 07:27:50;;;;;;;17.40;7.87;;;;;;;15.56;100.00;98278.79;1717766;82;21045;-67
2022/04/08 07:30:20;;;;;;;21.27;10.08;;;;;;;15.59;100.00;98275.28;1737845;82;21014;-66
2022/04/08 07:32:50;;;;;;;20.02;10.18;;;;;;;15.73;100.00;98278.78;1761849;80;22366;-67
2022/04/08 07:35:19;;;;;;;24.02;8.18;;;;;;;16.01;100.00;98283.08;1728546;82;21078;-68
2022/04/08 07:37:46;;;;;;;18.62;7.67;;;;;;;16.20;100.00;98280.88;1697859;84;21031;-68
2022/04/08 07:40:14;;;;;;;17.92;8.65;;;;;;;16.39;100.00;98277.33;1667453;83;21082;-69
2022/04/08 07:42:43;;;;;;;29.15;9.95;;;;;;;16.29;100.00;98277.48;1662465;83;21674;-68
2022/04/08 07:45:11;;;;;;;17.27;7.65;;;;;;;16.32;100.00;98285.69;1696752;83;21108;-66
2022/04/08 07:47:38;;;;;;;16.82;7.17;;;;;;;16.45;100.00;98278.52;1706207;83;21122;-67
2022/04/08 07:50:09;;;;;;;21.70;8.25;;;;;;;16.60;100.00;98287.98;1700678;83;21070;-66
2022/04/08 07:52:39;;;;;;;19.42;7.67;;;;;;;16.74;100.00;98289.25;1596747;88;21679;-68
2022/04/08 07:55:07;;;;;;;15.13;6.78;;;;;;;16.96;100.00;98287.08;1563484;89;21061;-66
2022/04/08 07:57:48;;;;;;;14.80;5.85;;;;;;;17.15;100.00;98284.84;1624482;86;21124;-70
2022/04/08 08:00:21;;;;;;;15.08;6.78;;;;;;;17.02;100.00;98292.34;1630459;87;21526;-66
2022/04/08 08:02:49;;;;;;;15.95;7.65;;;;;;;16.84;100.00;98299.52;1602671;87;21101;-67
2022/04/08 08:12:47;;;;;;;24.25;7.60;;;;;;;16.64;100.00;98291.33;1535015;92;21868;-68
2022/04/08 08:15:15;;;;;;;14.68;6.22;;;;;;;17.06;100.00;98296.75;1575408;89;21117;-66
2022/04/08 08:17:44;;;;;;;28.45;7.75;;;;;;;17.18;100.00;98298.80;1560595;92;21642;-66
2022/04/08 08:20:13;;;;;;;16.52;6.65;;;;;;;17.40;100.00;98289.18;1560432;90;21639;-67
2022/04/08 08:22:44;;;;;;;23.40;7.00;;;;;;;17.74;100.00;98288.12;1539320;91;23900;-66
2022/04/08 08:25:12;;;;;;;20.15;6.67;;;;;;;18.15;100.00;98282.46;1552048;91;21047;-70
2022/04/08 08:27:43;;;;;;;12.25;5.53;;;;;;;18.61;100.00;98288.75;1547068;91;21091;-68
2022/04/08 08:30:13;;;;;;;16.57;6.03;;;;;;;18.93;100.00;98288.63;1532561;93;21597;-69
2022/04/08 08:32:43;;;;;;;16.93;6.80;;;;;;;19.35;100.00;98289.02;1520452;93;21113;-67
2022/04/08 08:35:12;;;;;;;11.55;5.42;;;;;;;19.72;100.00;98274.27;1520365;93;21077;-68
2022/04/08 08:37:41;;;;;;;12.07;5.55;;;;;;;19.78;100.00;98273.74;1520030;93;21158;-69
2022/04/08 08:40:11;;;;;;;34.03;6.53;;;;;;;19.40;100.00;98276.42;1538777;92;21162;-67
2022/04/08 08:42:40;;;;;;;18.70;5.90;;;;;;;19.01;100.00;98280.98;1538922;93;21138;-68
2022/04/08 08:45:10;;;;;;;20.75;5.20;;;;;;;18.75;100.00;98280.32;1539841;93;21093;-68
2022/04/08 08:47:37;;;;;;;20.85;5.00;;;;;;;18.84;100.00;98281.19;1519251;93;21245;-68
2022/04/08 08:50:07;;;;;;;17.73;5.15;;;;;;;18.90;100.00;98273.28;1552223;92;21114;-69
2022/04/08 08:52:35;;;;;;;9.60;4.30;;;;;;;19.14;100.00;98267.61;1633751;87;21536;-67
2022/04/08 08:55:04;;;;;;;15.65;4.75;;;;;;;19.32;100.00;98266.27;1620166;88;21076;-68
2022/04/08 08:57:31;;;;;;;29.48;6.87;;;;;;;19.23;100.00;98261.05;1608538;89;21099;-68
2022/04/08 09:00:12;;;;;;;19.65;4.80;;;;;;;19.02;100.00;98257.99;1638576;87;21140;-68
2022/04/08 09:02:37;;;;;;;13.88;5.00;;;;;;;19.18;100.00;98258.30;1531797;93;21104;-70
2022/04/08 09:05:24;;;;;;;13.70;4.15;;;;;;;19.41;100.00;98256.97;1546348;92;21097;-69
2022/04/08 09:08:01;;;;;;;11.40;4.10;;;;;;;19.46;100.00;98257.50;1518009;94;21123;-67
2022/04/08 09:10:38;;;;;;;15.20;4.80;;;;;;;19.28;100.00;98248.73;1493962;96;21158;-71
2022/04/08 09:13:07;;;;;;;13.70;4.92;;;;;;;19.33;100.00;98254.75;1476072;96;21105;-70
2022/04/08 09:15:37;;;;;;;18.73;5.37;;;;;;;19.68;100.00;98267.66;1476318;96;21136;-71
2022/04/08 09:18:10;;;;;;;18.12;5.25;;;;;;;19.61;100.00;98256.15;1493460;96;21215;-69
2022/04/08 09:20:49;;;;;;;13.60;5.30;;;;;;;19.58;100.00;98251.77;1493579;96;21166;-70
2022/04/08 09:23:19;;;;;;;20.32;5.92;;;;;;;19.56;100.00;98258.88;1449425;98;21187;-70
2022/04/08 09:25:48;;;;;;;15.60;5.40;;;;;;;19.73;100.00;98265.48;1450200;99;21107;-70
2022/04/08 09:28:18;;;;;;;9.55;4.80;;;;;;;19.85;100.00;98254.28;1439892;97;21691;-68
2022/04/08 09:30:49;;;;;;;20.05;6.20;;;;;;;19.86;100.00;98253.97;1442508;99;21175;-68
2022/04/08 09:33:21;;;;;;;16.05;5.67;;;;;;;19.66;100.00;98256.71;1436309;99;21602;-70
2022/04/08 09:35:50;;;;;;;19.15;6.25;;;;;;;18.93;100.00;98257.14;1434385;98;21574;-68
2022/04/08 09:38:21;;;;;;;18.05;8.50;;;;;;;18.62;100.00;98254.80;1437629;98;21120;-70
2022/04/08 09:40:48;;;;;;;24.80;14.33;;;;;;;18.51;100.00;98258.59;1394380;103;21351;-72
2022/04/08 09:43:17;;;;;;;13.50;6.37;;;;;;;18.52;100.00;98262.95;1386950;103;21207;-69
2022/04/08 09:45:46;;;;;;;14.60;5.70;;;;;;;18.35;100.00;98268.63;1411479;100;21113;-72
2022/04/08 09:48:13;;;;;;;13.68;5.90;;;;;;;18.07;100.00;98269.81;1423275;99;21660;-68
2022/04/08 09:50:42;;;;;;;17.10;6.45;;;;;;;17.65;100.00;98276.31;1420879;99;21197;-68
2022/04/08 09:53:12;;;;;;;13.90;6.12;;;;;;;17.28;100.00;98278.95;1421313;99;21245;-69
2022/04/08 09:55:41;;;;;;;16.55;5.80;;;;;;;17.04;100.00;98277.89;1421700;99;21891;-69
2022/04/08 09:58:10;;;;;;;15.88;6.28;;;;;;;16.94;100.00;98276.95;1441806;99;21227;-68
2022/04/08 10:00:37;;;;;;;13.45;5.58;;;;;;;16.86;100.00;98281.79;1438239;97;21247;-70
2022/04/08 10:03:04;;;;;;;15.58;5.53;;;;;;;16.80;100.00;98282.79;1440844;97;21191;-68
2022/04/08 10:05:31;;;;;;;17.82;7.00;;;;;;;16.82;100.00;98272.95;1471101;96;21110;-69
2022/04/08 10:07:59;;;;;;;18.90;6.58;;;;;;;16.91;100.00;98278.30;1552369;90;21127;-69
2022/04/08 10:10:33;;;;;;;18.73;6.08;;;;;;;17.17;100.00;98269.83;1556802;91;21123;-68
2022/04/08 10:13:30;;;;;;;14.03;5.55;;;;;;;17.37;100.00;98274.69;1535676;90;21083;-68
2022/04/08 10:16:19;;;;;;;17.73;5.47;;;;;;;17.49;100.00;98272.33;1581697;90;21091;-69
2022/04/08 10:18:47;;;;;;;15.60;6.17;;;;;;;17.26;100.00;98279.75;1592375;87;21153;-70
2022/04/08 10:21:16;;;;;;;16.52;6.20;;;;;;;17.06;100.00;98294.02;1637748;87;21098;-70
2022/04/08 10:26:26;;;;;;;14.33;5.80;;;;;;;17.13;100.00;98293.28;1580586;90;21140;-70
2022/04/08 10:28:55;;;;;;;16.40;5.60;;;;;;;17.27;100.00;98291.79;1569704;89;21085;-69
2022/04/08 10:31:27;;;;;;;14.10;6.15;;;;;;;17.40;100.00;98292.46;1567286;89;21065;-69
2022/04/08 10:34:00;;;;;;;12.40;4.73;;;;;;;17.61;100.00;98282.55;1580845;89;21137;-69
2022/04/08 10:36:38;;;;;;;13.58;5.22;;;;;;;17.83;100.00;98289.31;1575699;89;21737;-70
2022/04/08 10:39:14;;;;;;;11.45;5.40;;;;;;;17.84;100.00;98291.75;1583412;89;21070;-69
2022/04/08 10:41:54;;;;;;;20.08;6.15;;;;;;;17.70;100.00;98292.47;1572899;89;21590;-69
2022/04/08 10:44:35;;;;;;;16.87;5.05;;;;;;;17.73;100.00;98295.50;1590749;88;21089;-68
2022/04/08 10:47:17;;;;;;;13.58;4.58;;;;;;;17.78;100.00;98291.45;1604723;88;21562;-65
2022/04/08 10:50:03;;;;;;;18.75;7.87;;;;;;;17.78;100.00;98284.61;1594062;89;21066;-67
2022/04/08 10:52:33;;;;;;;10.40;4.55;;;;;;;17.73;100.00;98290.59;1582846;89;21145;-70
2022/04/08 10:55:08;;;;;;;14.93;5.33;;;;;;;17.68;100.00;98291.91;1598771;89;21133;-68
2022/04/08 10:57:40;;;;;;;12.50;4.08;;;;;;;17.44;100.00;98290.85;1526175;91;21089;-69
2022/04/08 11:00:11;;;;;;;15.40;5.33;;;;;;;17.21;100.00;98295.56;1522081;92;21638;-67
2022/04/08 11:02:43;;;;;;;11.35;4.00;;;;;;;16.94;100.00;98287.88;1527786;92;21097;-69
2022/04/08 11:05:13;;;;;;;11.78;5.20;;;;;;;16.72;100.00;98294.69;1532999;92;21103;-69
2022/04/08 11:07:46;;;;;;;11.18;3.95;;;;;;;16.51;100.00;98295.23;1528810;92;21070;-70
2022/04/08 11:10:19;;;;;;;16.12;4.40;;;;;;;16.42;100.00;98294.56;1482934;96;21215;-68
2022/04/08 11:12:50;;;;;;;8.55;4.30;;;;;;;16.41;100.00;98305.17;1483928;95;21084;-68
2022/04/08 11:15:27;;;;;;;9.43;4.65;;;;;;;16.41;100.00;98292.91;1462249;97;21126;-68
2022/04/08 11:17:54;;;;;;;15.10;5.53;;;;;;;16.41;100.00;98299.17;1461279;97;21634;-68
2022/04/08 11:20:22;;;;;;;16.25;5.37;;;;;;;16.33;100.00;98302.35;1459212;97;21705;-68
2022/04/08 11:22:52;;;;;;;11.83;5.35;;;;;;;16.27;100.00;98303.34;1467242;96;21130;-68
2022/04/08 11:25:25;;;;;;;9.35;4.80;;;;;;;16.28;100.00;98303.64;1486204;96;21124;-68
2022/04/08 11:28:09;;;;;;;10.50;4.58;;;;;;;16.27;100.00;98306.06;1483912;96;21124;-68
2022/04/08 11:30:42;;;;;;;15.30;4.70;;;;;;;16.14;100.00;98306.70;1469226;96;21101;-68
2022/04/08 11:33:18;;;;;;;16.67;5.30;;;;;;;16.07;100.00;98302.51;1484415;96;21172;-67
2022/04/08 11:35:48;;;;;;;17.07;4.78;;;;;;;16.12;100.00;98303.95;1426420;100;21170;-70
2022/04/08 11:38:20;;;;;;;11.90;4.60;;;;;;;16.15;100.00;98304.82;1435923;99;21142;-69